sensor_id;sensor_type;location;lat;lon;timestamp;P1;durP1;ratioP1;P2;durP2;ratioP2
48524;SDS011;34316;51.514;-0.178;2022-10-15T00:01:18;11.30;;;4.45;;
48524;SDS011;34316;51.514;-0.178;2022-10-15T00:03:19;7.43;;;4.47;;
48524;SDS011;34316;51.514;-0.178;2022-10-15T00:05:21;6.75;;;4.40;;
48524;SDS011;34316;51.514;-0.178;2022-10-15T00:07:23;6.78;;;4.47;;
48524;SDS011;34316;51.514;-0.178;2022-10-15T00:09:25;5.75;;;3.72;;
48524;SDS011;34316;51.514;-0.178;2022-10-15T00:11:28;8.63;;;4.50;;
48524;SDS011;34316;51.514;-0.178;2022-10-15T00:15:35;7.18;;;4.22;;
48524;SDS011;34316;51.514;-0.178;2022-10-15T00:17:37;6.47;;;4.43;;
48524;SDS011;34316;51.514;-0.178;2022-10-15T00:19:39;8.57;;;4.88;;
48524;SDS011;34316;51.514;-0.178;2022-10-15T00:21:40;4.22;;;3.78;;
48524;SDS011;34316;51.514;-0.178;2022-10-15T00:23:42;8.45;;;4.25;;
48524;SDS011;34316;51.514;-0.178;2022-10-15T00:25:45;5.35;;;4.05;;
48524;SDS011;34316;51.514;-0.178;2022-10-15T00:27:46;5.55;;;4.15;;
48524;SDS011;34316;51.514;-0.178;2022-10-15T00:29:48;6.60;;;4.03;;
48524;SDS011;34316;51.514;-0.178;2022-10-15T00:31:50;7.32;;;4.60;;
48524;SDS011;34316;51.514;-0.178;2022-10-15T00:33:52;6.68;;;4.03;;
48524;SDS011;34316;51.514;-0.178;2022-10-15T00:36:02;6.95;;;4.03;;
48524;SDS011;34316;51.514;-0.178;2022-10-15T00:38:07;5.40;;;4.10;;
48524;SDS011;34316;51.514;-0.178;2022-10-15T00:40:10;5.95;;;4.57;;
48524;SDS011;34316;51.514;-0.178;2022-10-15T00:42:12;7.43;;;4.18;;
48524;SDS011;34316;51.514;-0.178;2022-10-15T00:46:35;7.20;;;4.40;;
48524;SDS011;34316;51.514;-0.178;2022-10-15T00:48:38;6.75;;;4.15;;
48524;SDS011;34316;51.514;-0.178;2022-10-15T00:50:40;7.03;;;4.43;;
48524;SDS011;34316;51.514;-0.178;2022-10-15T00:55:05;7.57;;;3.95;;
48524;SDS011;34316;51.514;-0.178;2022-10-15T00:57:10;6.15;;;4.43;;
48524;SDS011;34316;51.514;-0.178;2022-10-15T00:59:13;8.45;;;4.47;;
48524;SDS011;34316;51.514;-0.178;2022-10-15T01:01:14;6.35;;;4.53;;
48524;SDS011;34316;51.514;-0.178;2022-10-15T01:03:16;6.97;;;4.65;;
48524;SDS011;34316;51.514;-0.178;2022-10-15T01:05:18;7.55;;;4.65;;
48524;SDS011;34316;51.514;-0.178;2022-10-15T01:07:20;7.00;;;4.95;;
48524;SDS011;34316;51.514;-0.178;2022-10-15T01:09:21;6.85;;;4.65;;
48524;SDS011;34316;51.514;-0.178;2022-10-15T01:13:51;9.52;;;4.53;;
48524;SDS011;34316;51.514;-0.178;2022-10-15T01:16:07;6.93;;;4.95;;
48524;SDS011;34316;51.514;-0.178;2022-10-15T01:25:51;7.82;;;4.72;;
48524;SDS011;34316;51.514;-0.178;2022-10-15T01:30:25;7.65;;;5.18;;
48524;SDS011;34316;51.514;-0.178;2022-10-15T01:35:06;5.55;;;4.45;;
48524;SDS011;34316;51.514;-0.178;2022-10-15T01:39:20;8.30;;;5.28;;
48524;SDS011;34316;51.514;-0.178;2022-10-15T01:43:47;7.78;;;5.72;;
48524;SDS011;34316;51.514;-0.178;2022-10-15T01:45:52;8.85;;;5.30;;
48524;SDS011;34316;51.514;-0.178;2022-10-15T01:47:58;6.97;;;5.20;;
48524;SDS011;34316;51.514;-0.178;2022-10-15T01:50:03;9.27;;;5.20;;
48524;SDS011;34316;51.514;-0.178;2022-10-15T01:52:07;6.38;;;4.68;;
48524;SDS011;34316;51.514;-0.178;2022-10-15T01:54:11;12.48;;;5.30;;
48524;SDS011;34316;51.514;-0.178;2022-10-15T01:56:17;8.88;;;5.05;;
48524;SDS011;34316;51.514;-0.178;2022-10-15T01:58:20;7.47;;;4.60;;
48524;SDS011;34316;51.514;-0.178;2022-10-15T02:00:23;6.45;;;4.70;;
48524;SDS011;34316;51.514;-0.178;2022-10-15T02:02:25;9.93;;;5.13;;
48524;SDS011;34316;51.514;-0.178;2022-10-15T02:04:28;6.82;;;5.43;;
48524;SDS011;34316;51.514;-0.178;2022-10-15T02:10:51;7.07;;;4.45;;
48524;SDS011;34316;51.514;-0.178;2022-10-15T02:13:13;7.82;;;4.68;;
48524;SDS011;34316;51.514;-0.178;2022-10-15T02:15:31;9.80;;;5.00;;
48524;SDS011;34316;51.514;-0.178;2022-10-15T02:17:57;6.90;;;4.88;;
48524;SDS011;34316;51.514;-0.178;2022-10-15T02:20:08;7.80;;;5.15;;
48524;SDS011;34316;51.514;-0.178;2022-10-15T02:22:39;7.38;;;4.95;;
48524;SDS011;34316;51.514;-0.178;2022-10-15T02:24:52;8.20;;;4.95;;
48524;SDS011;34316;51.514;-0.178;2022-10-15T02:26:59;11.48;;;5.50;;
48524;SDS011;34316;51.514;-0.178;2022-10-15T02:29:01;5.60;;;4.85;;
48524;SDS011;34316;51.514;-0.178;2022-10-15T02:31:06;7.80;;;5.15;;
48524;SDS011;34316;51.514;-0.178;2022-10-15T02:33:09;6.95;;;4.78;;
48524;SDS011;34316;51.514;-0.178;2022-10-15T02:35:11;7.82;;;4.82;;
48524;SDS011;34316;51.514;-0.178;2022-10-15T02:37:12;10.13;;;5.18;;
48524;SDS011;34316;51.514;-0.178;2022-10-15T02:39:17;7.47;;;5.28;;
48524;SDS011;34316;51.514;-0.178;2022-10-15T02:41:20;8.43;;;4.82;;
48524;SDS011;34316;51.514;-0.178;2022-10-15T02:43:22;8.43;;;5.32;;
48524;SDS011;34316;51.514;-0.178;2022-10-15T02:45:24;10.48;;;5.57;;
48524;SDS011;34316;51.514;-0.178;2022-10-15T02:47:26;8.38;;;4.80;;
48524;SDS011;34316;51.514;-0.178;2022-10-15T02:49:28;9.13;;;5.25;;
48524;SDS011;34316;51.514;-0.178;2022-10-15T02:51:32;8.65;;;5.10;;
48524;SDS011;34316;51.514;-0.178;2022-10-15T02:53:35;7.88;;;4.78;;
48524;SDS011;34316;51.514;-0.178;2022-10-15T02:55:36;7.45;;;4.68;;
48524;SDS011;34316;51.514;-0.178;2022-10-15T02:57:38;8.30;;;5.28;;
48524;SDS011;34316;51.514;-0.178;2022-10-15T02:59:40;7.47;;;5.05;;
48524;SDS011;34316;51.514;-0.178;2022-10-15T03:01:42;7.95;;;4.90;;
48524;SDS011;34316;51.514;-0.178;2022-10-15T03:03:44;10.93;;;4.88;;
48524;SDS011;34316;51.514;-0.178;2022-10-15T03:05:45;8.18;;;4.80;;
48524;SDS011;34316;51.514;-0.178;2022-10-15T03:07:47;7.80;;;4.75;;
48524;SDS011;34316;51.514;-0.178;2022-10-15T03:09:49;10.35;;;5.30;;
48524;SDS011;34316;51.514;-0.178;2022-10-15T03:11:50;8.75;;;4.95;;
48524;SDS011;34316;51.514;-0.178;2022-10-15T03:13:52;10.13;;;4.13;;
48524;SDS011;34316;51.514;-0.178;2022-10-15T03:15:54;8.43;;;5.05;;
48524;SDS011;34316;51.514;-0.178;2022-10-15T03:17:56;7.47;;;5.57;;
48524;SDS011;34316;51.514;-0.178;2022-10-15T03:19:57;8.13;;;5.32;;
48524;SDS011;34316;51.514;-0.178;2022-10-15T03:21:59;6.80;;;5.50;;
48524;SDS011;34316;51.514;-0.178;2022-10-15T03:24:01;6.22;;;4.75;;
48524;SDS011;34316;51.514;-0.178;2022-10-15T03:26:02;7.05;;;5.18;;
48524;SDS011;34316;51.514;-0.178;2022-10-15T03:28:04;7.05;;;5.20;;
48524;SDS011;34316;51.514;-0.178;2022-10-15T03:30:06;8.88;;;5.43;;
48524;SDS011;34316;51.514;-0.178;2022-10-15T03:32:08;8.07;;;4.97;;
48524;SDS011;34316;51.514;-0.178;2022-10-15T03:34:10;12.68;;;5.18;;
48524;SDS011;34316;51.514;-0.178;2022-10-15T03:36:11;10.07;;;5.05;;
48524;SDS011;34316;51.514;-0.178;2022-10-15T03:38:13;9.70;;;5.25;;
48524;SDS011;34316;51.514;-0.178;2022-10-15T03:40:15;9.45;;;5.10;;
48524;SDS011;34316;51.514;-0.178;2022-10-15T03:42:17;9.40;;;5.28;;
48524;SDS011;34316;51.514;-0.178;2022-10-15T03:44:19;5.82;;;4.75;;
48524;SDS011;34316;51.514;-0.178;2022-10-15T03:46:20;6.55;;;5.40;;
48524;SDS011;34316;51.514;-0.178;2022-10-15T03:48:22;7.43;;;4.68;;
48524;SDS011;34316;51.514;-0.178;2022-10-15T03:50:24;5.35;;;4.85;;
48524;SDS011;34316;51.514;-0.178;2022-10-15T03:52:26;9.13;;;4.70;;
48524;SDS011;34316;51.514;-0.178;2022-10-15T03:54:27;5.88;;;4.85;;
48524;SDS011;34316;51.514;-0.178;2022-10-15T03:56:29;7.78;;;5.10;;
48524;SDS011;34316;51.514;-0.178;2022-10-15T03:58:31;6.60;;;5.32;;
48524;SDS011;34316;51.514;-0.178;2022-10-15T04:00:32;8.32;;;5.30;;
48524;SDS011;34316;51.514;-0.178;2022-10-15T04:02:34;7.60;;;5.50;;
48524;SDS011;34316;51.514;-0.178;2022-10-15T04:04:36;8.00;;;5.68;;
48524;SDS011;34316;51.514;-0.178;2022-10-15T04:06:38;6.20;;;5.18;;
48524;SDS011;34316;51.514;-0.178;2022-10-15T04:08:40;8.98;;;5.78;;
48524;SDS011;34316;51.514;-0.178;2022-10-15T04:10:41;8.70;;;5.57;;
48524;SDS011;34316;51.514;-0.178;2022-10-15T04:12:43;7.30;;;4.95;;
48524;SDS011;34316;51.514;-0.178;2022-10-15T04:14:45;7.88;;;5.57;;
48524;SDS011;34316;51.514;-0.178;2022-10-15T04:16:46;11.18;;;6.30;;
48524;SDS011;34316;51.514;-0.178;2022-10-15T04:18:48;9.40;;;6.15;;
48524;SDS011;34316;51.514;-0.178;2022-10-15T04:20:50;11.38;;;6.20;;
48524;SDS011;34316;51.514;-0.178;2022-10-15T04:22:52;8.43;;;5.85;;
48524;SDS011;34316;51.514;-0.178;2022-10-15T04:24:53;9.23;;;5.63;;
48524;SDS011;34316;51.514;-0.178;2022-10-15T04:26:55;8.98;;;5.40;;
48524;SDS011;34316;51.514;-0.178;2022-10-15T04:28:57;11.32;;;5.97;;
48524;SDS011;34316;51.514;-0.178;2022-10-15T04:30:59;10.02;;;5.63;;
48524;SDS011;34316;51.514;-0.178;2022-10-15T04:33:01;10.75;;;5.85;;
48524;SDS011;34316;51.514;-0.178;2022-10-15T04:35:03;9.93;;;5.50;;
48524;SDS011;34316;51.514;-0.178;2022-10-15T04:37:05;9.10;;;6.25;;
48524;SDS011;34316;51.514;-0.178;2022-10-15T04:39:07;10.70;;;5.80;;
48524;SDS011;34316;51.514;-0.178;2022-10-15T04:41:13;11.40;;;6.07;;
48524;SDS011;34316;51.514;-0.178;2022-10-15T04:43:15;9.73;;;5.65;;
48524;SDS011;34316;51.514;-0.178;2022-10-15T04:45:17;11.15;;;5.80;;
48524;SDS011;34316;51.514;-0.178;2022-10-15T04:47:19;8.02;;;5.63;;
48524;SDS011;34316;51.514;-0.178;2022-10-15T04:49:21;9.95;;;5.82;;
48524;SDS011;34316;51.514;-0.178;2022-10-15T04:51:23;8.25;;;5.97;;
48524;SDS011;34316;51.514;-0.178;2022-10-15T04:53:26;13.57;;;6.05;;
48524;SDS011;34316;51.514;-0.178;2022-10-15T04:55:27;9.98;;;6.13;;
48524;SDS011;34316;51.514;-0.178;2022-10-15T04:57:29;12.98;;;6.78;;
48524;SDS011;34316;51.514;-0.178;2022-10-15T04:59:31;11.25;;;6.97;;
48524;SDS011;34316;51.514;-0.178;2022-10-15T05:01:33;10.70;;;6.85;;
48524;SDS011;34316;51.514;-0.178;2022-10-15T05:03:35;10.35;;;6.32;;
48524;SDS011;34316;51.514;-0.178;2022-10-15T05:05:41;10.75;;;6.53;;
48524;SDS011;34316;51.514;-0.178;2022-10-15T05:07:42;12.20;;;6.13;;
48524;SDS011;34316;51.514;-0.178;2022-10-15T05:09:44;10.73;;;6.35;;
48524;SDS011;34316;51.514;-0.178;2022-10-15T05:11:46;11.15;;;6.82;;
48524;SDS011;34316;51.514;-0.178;2022-10-15T05:13:48;9.52;;;6.63;;
48524;SDS011;34316;51.514;-0.178;2022-10-15T05:15:50;11.07;;;6.32;;
48524;SDS011;34316;51.514;-0.178;2022-10-15T05:17:52;11.02;;;6.70;;
48524;SDS011;34316;51.514;-0.178;2022-10-15T05:19:54;10.38;;;6.30;;
48524;SDS011;34316;51.514;-0.178;2022-10-15T05:21:55;11.43;;;6.28;;
48524;SDS011;34316;51.514;-0.178;2022-10-15T05:23:57;14.73;;;6.68;;
48524;SDS011;34316;51.514;-0.178;2022-10-15T05:26:00;12.32;;;6.35;;
48524;SDS011;34316;51.514;-0.178;2022-10-15T05:28:02;9.73;;;7.05;;
48524;SDS011;34316;51.514;-0.178;2022-10-15T05:30:04;12.20;;;6.20;;
48524;SDS011;34316;51.514;-0.178;2022-10-15T05:32:06;8.82;;;6.18;;
48524;SDS011;34316;51.514;-0.178;2022-10-15T05:34:08;10.70;;;6.97;;
48524;SDS011;34316;51.514;-0.178;2022-10-15T05:36:14;10.40;;;6.30;;
48524;SDS011;34316;51.514;-0.178;2022-10-15T05:38:20;9.98;;;6.15;;
48524;SDS011;34316;51.514;-0.178;2022-10-15T05:40:22;9.27;;;6.07;;
48524;SDS011;34316;51.514;-0.178;2022-10-15T05:42:23;10.13;;;6.50;;
48524;SDS011;34316;51.514;-0.178;2022-10-15T05:44:25;14.80;;;6.93;;
48524;SDS011;34316;51.514;-0.178;2022-10-15T05:46:27;9.45;;;6.50;;
48524;SDS011;34316;51.514;-0.178;2022-10-15T05:48:29;10.38;;;6.40;;
48524;SDS011;34316;51.514;-0.178;2022-10-15T05:50:30;11.63;;;6.50;;
48524;SDS011;34316;51.514;-0.178;2022-10-15T05:52:32;13.13;;;6.80;;
48524;SDS011;34316;51.514;-0.178;2022-10-15T05:54:34;10.80;;;6.82;;
48524;SDS011;34316;51.514;-0.178;2022-10-15T05:56:36;10.27;;;6.78;;
48524;SDS011;34316;51.514;-0.178;2022-10-15T05:58:38;11.43;;;6.85;;
48524;SDS011;34316;51.514;-0.178;2022-10-15T06:00:40;9.80;;;6.18;;
48524;SDS011;34316;51.514;-0.178;2022-10-15T06:02:41;11.68;;;6.80;;
48524;SDS011;34316;51.514;-0.178;2022-10-15T06:04:43;10.57;;;6.68;;
48524;SDS011;34316;51.514;-0.178;2022-10-15T06:06:45;10.00;;;6.95;;
48524;SDS011;34316;51.514;-0.178;2022-10-15T06:08:47;10.70;;;6.50;;
48524;SDS011;34316;51.514;-0.178;2022-10-15T06:10:49;12.40;;;7.05;;
48524;SDS011;34316;51.514;-0.178;2022-10-15T06:12:51;14.77;;;6.97;;
48524;SDS011;34316;51.514;-0.178;2022-10-15T06:14:52;9.98;;;6.00;;
48524;SDS011;34316;51.514;-0.178;2022-10-15T06:16:54;10.45;;;6.45;;
48524;SDS011;34316;51.514;-0.178;2022-10-15T06:18:56;9.88;;;6.60;;
48524;SDS011;34316;51.514;-0.178;2022-10-15T06:20:57;11.65;;;6.22;;
48524;SDS011;34316;51.514;-0.178;2022-10-15T06:22:59;13.07;;;7.20;;
48524;SDS011;34316;51.514;-0.178;2022-10-15T06:25:02;15.20;;;6.68;;
48524;SDS011;34316;51.514;-0.178;2022-10-15T06:27:03;14.82;;;6.90;;
48524;SDS011;34316;51.514;-0.178;2022-10-15T06:29:05;12.60;;;7.07;;
48524;SDS011;34316;51.514;-0.178;2022-10-15T06:31:07;9.50;;;6.78;;
48524;SDS011;34316;51.514;-0.178;2022-10-15T06:33:08;11.05;;;6.68;;
48524;SDS011;34316;51.514;-0.178;2022-10-15T06:35:11;10.02;;;6.78;;
48524;SDS011;34316;51.514;-0.178;2022-10-15T06:37:13;10.18;;;6.47;;
48524;SDS011;34316;51.514;-0.178;2022-10-15T06:39:14;10.98;;;5.95;;
48524;SDS011;34316;51.514;-0.178;2022-10-15T06:41:16;10.98;;;5.43;;
48524;SDS011;34316;51.514;-0.178;2022-10-15T06:43:18;10.27;;;6.28;;
48524;SDS011;34316;51.514;-0.178;2022-10-15T06:45:20;15.13;;;6.35;;
48524;SDS011;34316;51.514;-0.178;2022-10-15T06:47:22;10.93;;;6.47;;
48524;SDS011;34316;51.514;-0.178;2022-10-15T06:49:24;11.20;;;6.50;;
48524;SDS011;34316;51.514;-0.178;2022-10-15T06:51:25;10.63;;;5.95;;
48524;SDS011;34316;51.514;-0.178;2022-10-15T06:53:27;9.82;;;6.28;;
48524;SDS011;34316;51.514;-0.178;2022-10-15T06:55:29;9.43;;;5.75;;
48524;SDS011;34316;51.514;-0.178;2022-10-15T06:57:32;16.25;;;5.82;;
48524;SDS011;34316;51.514;-0.178;2022-10-15T06:59:33;9.35;;;5.28;;
48524;SDS011;34316;51.514;-0.178;2022-10-15T07:01:41;9.30;;;5.47;;
48524;SDS011;34316;51.514;-0.178;2022-10-15T07:03:43;18.38;;;5.70;;
48524;SDS011;34316;51.514;-0.178;2022-10-15T07:05:45;9.20;;;6.13;;
48524;SDS011;34316;51.514;-0.178;2022-10-15T07:07:50;19.08;;;6.30;;
48524;SDS011;34316;51.514;-0.178;2022-10-15T07:09:55;10.00;;;5.53;;
48524;SDS011;34316;51.514;-0.178;2022-10-15T07:11:57;11.32;;;5.10;;
48524;SDS011;34316;51.514;-0.178;2022-10-15T07:13:58;11.55;;;5.45;;
48524;SDS011;34316;51.514;-0.178;2022-10-15T07:16:07;7.63;;;5.63;;
48524;SDS011;34316;51.514;-0.178;2022-10-15T07:18:10;12.25;;;5.78;;
48524;SDS011;34316;51.514;-0.178;2022-10-15T07:20:12;9.35;;;5.30;;
48524;SDS011;34316;51.514;-0.178;2022-10-15T07:22:13;14.25;;;6.72;;
48524;SDS011;34316;51.514;-0.178;2022-10-15T07:24:15;9.60;;;6.28;;
48524;SDS011;34316;51.514;-0.178;2022-10-15T07:26:17;13.93;;;5.35;;
48524;SDS011;34316;51.514;-0.178;2022-10-15T07:28:19;11.45;;;5.25;;
48524;SDS011;34316;51.514;-0.178;2022-10-15T07:30:21;10.52;;;5.85;;
48524;SDS011;34316;51.514;-0.178;2022-10-15T07:32:27;8.27;;;5.28;;
48524;SDS011;34316;51.514;-0.178;2022-10-15T07:34:29;9.93;;;5.97;;
48524;SDS011;34316;51.514;-0.178;2022-10-15T07:36:30;9.15;;;5.30;;
48524;SDS011;34316;51.514;-0.178;2022-10-15T07:38:32;10.60;;;5.55;;
48524;SDS011;34316;51.514;-0.178;2022-10-15T07:40:35;9.30;;;5.57;;
48524;SDS011;34316;51.514;-0.178;2022-10-15T07:42:36;7.75;;;5.43;;
48524;SDS011;34316;51.514;-0.178;2022-10-15T07:44:38;31.35;;;6.25;;
48524;SDS011;34316;51.514;-0.178;2022-10-15T07:46:40;7.80;;;5.22;;
48524;SDS011;34316;51.514;-0.178;2022-10-15T07:48:41;10.05;;;5.20;;
48524;SDS011;34316;51.514;-0.178;2022-10-15T07:50:43;10.90;;;6.55;;
48524;SDS011;34316;51.514;-0.178;2022-10-15T07:52:45;11.63;;;8.80;;
48524;SDS011;34316;51.514;-0.178;2022-10-15T07:54:47;10.00;;;5.65;;
48524;SDS011;34316;51.514;-0.178;2022-10-15T07:56:49;9.45;;;5.35;;
48524;SDS011;34316;51.514;-0.178;2022-10-15T07:58:50;8.05;;;5.35;;
48524;SDS011;34316;51.514;-0.178;2022-10-15T08:00:52;10.57;;;5.32;;
48524;SDS011;34316;51.514;-0.178;2022-10-15T08:02:54;11.55;;;6.07;;
48524;SDS011;34316;51.514;-0.178;2022-10-15T08:04:55;8.10;;;5.13;;
48524;SDS011;34316;51.514;-0.178;2022-10-15T08:06:57;12.50;;;6.15;;
48524;SDS011;34316;51.514;-0.178;2022-10-15T08:08:59;12.50;;;6.97;;
48524;SDS011;34316;51.514;-0.178;2022-10-15T08:11:05;8.38;;;5.28;;
48524;SDS011;34316;51.514;-0.178;2022-10-15T08:13:08;7.13;;;5.18;;
48524;SDS011;34316;51.514;-0.178;2022-10-15T08:15:09;9.02;;;5.90;;
48524;SDS011;34316;51.514;-0.178;2022-10-15T08:17:11;10.30;;;5.60;;
48524;SDS011;34316;51.514;-0.178;2022-10-15T08:19:13;8.20;;;4.95;;
48524;SDS011;34316;51.514;-0.178;2022-10-15T08:21:17;8.55;;;5.20;;
48524;SDS011;34316;51.514;-0.178;2022-10-15T08:23:25;7.22;;;4.88;;
48524;SDS011;34316;51.514;-0.178;2022-10-15T08:25:27;10.25;;;4.95;;
48524;SDS011;34316;51.514;-0.178;2022-10-15T08:27:29;11.00;;;5.63;;
48524;SDS011;34316;51.514;-0.178;2022-10-15T08:29:30;10.30;;;5.60;;
48524;SDS011;34316;51.514;-0.178;2022-10-15T08:31:32;13.02;;;5.05;;
48524;SDS011;34316;51.514;-0.178;2022-10-15T08:33:35;10.00;;;5.70;;
48524;SDS011;34316;51.514;-0.178;2022-10-15T08:35:41;34.53;;;19.27;;
48524;SDS011;34316;51.514;-0.178;2022-10-15T08:37:44;10.57;;;5.80;;
48524;SDS011;34316;51.514;-0.178;2022-10-15T08:39:45;9.82;;;5.28;;
48524;SDS011;34316;51.514;-0.178;2022-10-15T08:41:48;10.88;;;5.65;;
48524;SDS011;34316;51.514;-0.178;2022-10-15T08:43:53;7.03;;;4.53;;
48524;SDS011;34316;51.514;-0.178;2022-10-15T08:45:59;7.78;;;4.75;;
48524;SDS011;34316;51.514;-0.178;2022-10-15T08:48:10;7.93;;;4.70;;
48524;SDS011;34316;51.514;-0.178;2022-10-15T08:50:22;8.70;;;5.00;;
48524;SDS011;34316;51.514;-0.178;2022-10-15T08:52:31;13.40;;;7.43;;
48524;SDS011;34316;51.514;-0.178;2022-10-15T08:54:43;7.72;;;4.60;;
48524;SDS011;34316;51.514;-0.178;2022-10-15T08:56:46;6.43;;;4.13;;
48524;SDS011;34316;51.514;-0.178;2022-10-15T08:59:02;7.82;;;4.30;;
48524;SDS011;34316;51.514;-0.178;2022-10-15T09:01:56;7.45;;;4.32;;
48524;SDS011;34316;51.514;-0.178;2022-10-15T09:08:34;10.40;;;4.03;;
48524;SDS011;34316;51.514;-0.178;2022-10-15T09:12:49;7.88;;;4.30;;
48524;SDS011;34316;51.514;-0.178;2022-10-15T09:14:56;8.85;;;4.35;;
48524;SDS011;34316;51.514;-0.178;2022-10-15T09:17:03;6.80;;;4.70;;
48524;SDS011;34316;51.514;-0.178;2022-10-15T09:19:20;10.90;;;4.85;;
48524;SDS011;34316;51.514;-0.178;2022-10-15T09:21:23;7.03;;;4.60;;
48524;SDS011;34316;51.514;-0.178;2022-10-15T09:23:28;7.43;;;4.60;;
48524;SDS011;34316;51.514;-0.178;2022-10-15T09:25:36;8.80;;;4.55;;
48524;SDS011;34316;51.514;-0.178;2022-10-15T09:27:40;6.97;;;4.80;;
48524;SDS011;34316;51.514;-0.178;2022-10-15T09:31:57;8.85;;;4.60;;
48524;SDS011;34316;51.514;-0.178;2022-10-15T09:34:10;7.15;;;4.18;;
48524;SDS011;34316;51.514;-0.178;2022-10-15T09:43:34;7.82;;;5.72;;
48524;SDS011;34316;51.514;-0.178;2022-10-15T09:45:37;6.18;;;4.55;;
48524;SDS011;34316;51.514;-0.178;2022-10-15T09:47:40;7.75;;;5.00;;
48524;SDS011;34316;51.514;-0.178;2022-10-15T09:49:43;11.85;;;7.15;;
48524;SDS011;34316;51.514;-0.178;2022-10-15T09:51:48;7.32;;;5.53;;
48524;SDS011;34316;51.514;-0.178;2022-10-15T09:56:25;8.82;;;4.50;;
48524;SDS011;34316;51.514;-0.178;2022-10-15T09:58:34;8.60;;;4.53;;
48524;SDS011;34316;51.514;-0.178;2022-10-15T10:00:55;5.53;;;3.90;;
48524;SDS011;34316;51.514;-0.178;2022-10-15T10:03:03;6.03;;;4.38;;
48524;SDS011;34316;51.514;-0.178;2022-10-15T10:07:40;5.93;;;3.95;;
48524;SDS011;34316;51.514;-0.178;2022-10-15T10:09:50;9.82;;;5.40;;
48524;SDS011;34316;51.514;-0.178;2022-10-15T10:11:55;8.32;;;4.38;;
48524;SDS011;34316;51.514;-0.178;2022-10-15T10:13:59;8.65;;;4.63;;
48524;SDS011;34316;51.514;-0.178;2022-10-15T10:16:05;15.75;;;8.85;;
48524;SDS011;34316;51.514;-0.178;2022-10-15T10:18:18;18.52;;;8.85;;
48524;SDS011;34316;51.514;-0.178;2022-10-15T10:20:22;7.95;;;5.10;;
48524;SDS011;34316;51.514;-0.178;2022-10-15T10:22:27;8.85;;;4.93;;
48524;SDS011;34316;51.514;-0.178;2022-10-15T10:24:29;9.60;;;5.38;;
48524;SDS011;34316;51.514;-0.178;2022-10-15T10:26:34;7.15;;;4.65;;
48524;SDS011;34316;51.514;-0.178;2022-10-15T10:28:40;10.93;;;7.30;;
48524;SDS011;34316;51.514;-0.178;2022-10-15T10:31:07;8.52;;;4.80;;
48524;SDS011;34316;51.514;-0.178;2022-10-15T10:33:09;5.25;;;3.75;;
48524;SDS011;34316;51.514;-0.178;2022-10-15T10:35:21;6.57;;;4.38;;
48524;SDS011;34316;51.514;-0.178;2022-10-15T10:37:24;13.57;;;5.18;;
48524;SDS011;34316;51.514;-0.178;2022-10-15T10:39:28;7.32;;;4.40;;
48524;SDS011;34316;51.514;-0.178;2022-10-15T10:43:53;7.15;;;3.97;;
48524;SDS011;34316;51.514;-0.178;2022-10-15T10:45:57;7.53;;;4.50;;
48524;SDS011;34316;51.514;-0.178;2022-10-15T10:48:24;6.23;;;4.50;;
48524;SDS011;34316;51.514;-0.178;2022-10-15T10:50:35;7.20;;;4.05;;
48524;SDS011;34316;51.514;-0.178;2022-10-15T10:52:40;5.97;;;3.72;;
48524;SDS011;34316;51.514;-0.178;2022-10-15T10:54:42;5.95;;;3.47;;
48524;SDS011;34316;51.514;-0.178;2022-10-15T10:56:44;4.50;;;3.50;;
48524;SDS011;34316;51.514;-0.178;2022-10-15T10:58:46;4.40;;;3.50;;
48524;SDS011;34316;51.514;-0.178;2022-10-15T11:00:50;6.90;;;3.03;;
48524;SDS011;34316;51.514;-0.178;2022-10-15T11:02:54;6.15;;;3.50;;
48524;SDS011;34316;51.514;-0.178;2022-10-15T11:04:57;4.20;;;3.33;;
48524;SDS011;34316;51.514;-0.178;2022-10-15T11:09:23;5.20;;;3.55;;
48524;SDS011;34316;51.514;-0.178;2022-10-15T11:11:56;7.40;;;3.38;;
48524;SDS011;34316;51.514;-0.178;2022-10-15T11:14:11;6.65;;;3.85;;
48524;SDS011;34316;51.514;-0.178;2022-10-15T11:16:43;5.72;;;3.45;;
48524;SDS011;34316;51.514;-0.178;2022-10-15T11:25:45;6.03;;;3.30;;
48524;SDS011;34316;51.514;-0.178;2022-10-15T11:27:57;5.72;;;3.70;;
48524;SDS011;34316;51.514;-0.178;2022-10-15T11:30:26;4.60;;;3.20;;
48524;SDS011;34316;51.514;-0.178;2022-10-15T11:37:53;7.78;;;4.10;;
48524;SDS011;34316;51.514;-0.178;2022-10-15T11:42:24;5.07;;;3.13;;
48524;SDS011;34316;51.514;-0.178;2022-10-15T11:56:22;4.20;;;3.13;;
48524;SDS011;34316;51.514;-0.178;2022-10-15T11:58:33;6.07;;;3.20;;
48524;SDS011;34316;51.514;-0.178;2022-10-15T12:00:42;8.82;;;5.45;;
48524;SDS011;34316;51.514;-0.178;2022-10-15T12:02:47;6.35;;;3.08;;
48524;SDS011;34316;51.514;-0.178;2022-10-15T12:04:50;7.72;;;3.42;;
48524;SDS011;34316;51.514;-0.178;2022-10-15T12:06:56;4.20;;;2.47;;
48524;SDS011;34316;51.514;-0.178;2022-10-15T12:08:59;6.03;;;2.83;;
48524;SDS011;34316;51.514;-0.178;2022-10-15T12:11:08;5.70;;;2.55;;
48524;SDS011;34316;51.514;-0.178;2022-10-15T12:20:21;4.28;;;2.72;;
48524;SDS011;34316;51.514;-0.178;2022-10-15T12:22:34;4.47;;;2.85;;
48524;SDS011;34316;51.514;-0.178;2022-10-15T12:26:52;3.55;;;2.85;;
48524;SDS011;34316;51.514;-0.178;2022-10-15T12:28:54;6.63;;;4.38;;
48524;SDS011;34316;51.514;-0.178;2022-10-15T12:31:02;6.32;;;2.88;;
48524;SDS011;34316;51.514;-0.178;2022-10-15T12:35:36;4.90;;;2.60;;
48524;SDS011;34316;51.514;-0.178;2022-10-15T12:37:38;6.20;;;2.70;;
48524;SDS011;34316;51.514;-0.178;2022-10-15T12:39:40;4.78;;;3.20;;
48524;SDS011;34316;51.514;-0.178;2022-10-15T12:41:58;6.13;;;3.03;;
48524;SDS011;34316;51.514;-0.178;2022-10-15T12:44:04;5.85;;;2.92;;
48524;SDS011;34316;51.514;-0.178;2022-10-15T12:46:19;5.45;;;3.25;;
48524;SDS011;34316;51.514;-0.178;2022-10-15T12:48:27;13.02;;;3.30;;
48524;SDS011;34316;51.514;-0.178;2022-10-15T12:50:32;5.88;;;2.28;;
48524;SDS011;34316;51.514;-0.178;2022-10-15T13:05:52;4.82;;;2.38;;
48524;SDS011;34316;51.514;-0.178;2022-10-15T13:07:56;8.30;;;2.70;;
48524;SDS011;34316;51.514;-0.178;2022-10-15T13:09:58;6.45;;;2.92;;
48524;SDS011;34316;51.514;-0.178;2022-10-15T13:12:02;8.82;;;2.60;;
48524;SDS011;34316;51.514;-0.178;2022-10-15T13:16:14;6.60;;;2.95;;
48524;SDS011;34316;51.514;-0.178;2022-10-15T13:18:16;7.05;;;2.58;;
48524;SDS011;34316;51.514;-0.178;2022-10-15T13:20:37;7.65;;;2.92;;
48524;SDS011;34316;51.514;-0.178;2022-10-15T13:22:40;8.45;;;2.97;;
48524;SDS011;34316;51.514;-0.178;2022-10-15T13:24:42;6.45;;;2.75;;
48524;SDS011;34316;51.514;-0.178;2022-10-15T13:26:47;5.10;;;2.20;;
48524;SDS011;34316;51.514;-0.178;2022-10-15T13:28:50;5.20;;;2.88;;
48524;SDS011;34316;51.514;-0.178;2022-10-15T13:30:55;4.97;;;2.75;;
48524;SDS011;34316;51.514;-0.178;2022-10-15T13:32:57;5.20;;;3.10;;
48524;SDS011;34316;51.514;-0.178;2022-10-15T13:35:02;6.10;;;3.03;;
48524;SDS011;34316;51.514;-0.178;2022-10-15T13:37:04;5.43;;;2.47;;
48524;SDS011;34316;51.514;-0.178;2022-10-15T13:39:19;8.52;;;3.20;;
48524;SDS011;34316;51.514;-0.178;2022-10-15T13:41:43;7.65;;;2.95;;
48524;SDS011;34316;51.514;-0.178;2022-10-15T13:43:51;5.30;;;3.03;;
48524;SDS011;34316;51.514;-0.178;2022-10-15T13:45:56;5.90;;;3.00;;
48524;SDS011;34316;51.514;-0.178;2022-10-15T13:47:59;4.57;;;2.70;;
48524;SDS011;34316;51.514;-0.178;2022-10-15T13:50:10;7.90;;;3.17;;
48524;SDS011;34316;51.514;-0.178;2022-10-15T13:52:24;4.45;;;2.80;;
48524;SDS011;34316;51.514;-0.178;2022-10-15T13:54:27;5.47;;;2.92;;
48524;SDS011;34316;51.514;-0.178;2022-10-15T13:56:30;5.68;;;3.22;;
48524;SDS011;34316;51.514;-0.178;2022-10-15T13:58:33;5.53;;;3.22;;
48524;SDS011;34316;51.514;-0.178;2022-10-15T14:00:35;7.35;;;2.92;;
48524;SDS011;34316;51.514;-0.178;2022-10-15T14:02:37;5.80;;;2.90;;
48524;SDS011;34316;51.514;-0.178;2022-10-15T14:04:38;5.40;;;2.88;;
48524;SDS011;34316;51.514;-0.178;2022-10-15T14:06:41;7.65;;;2.92;;